createdAt,value
2022-08-31T00:00:32.097Z,18.64
2022-08-31T00:01:32.077Z,18.64
2022-08-31T00:02:32.176Z,18.62
2022-08-31T00:03:32.070Z,18.65
2022-08-31T00:04:32.171Z,18.66
2022-08-31T00:05:32.051Z,18.65
2022-08-31T00:06:32.031Z,18.66
2022-08-31T00:07:32.032Z,18.66
2022-08-31T00:08:32.017Z,18.69
2022-08-31T00:09:32.025Z,18.69
2022-08-31T00:10:36.852Z,18.74
2022-08-31T00:11:33.005Z,18.75
2022-08-31T00:12:32.014Z,18.68
2022-08-31T00:13:31.946Z,18.68
2022-08-31T00:14:31.985Z,18.64
2022-08-31T00:15:31.939Z,18.66
2022-08-31T00:16:32.072Z,18.60
2022-08-31T00:17:31.946Z,18.60
2022-08-31T00:18:31.895Z,18.59
2022-08-31T00:19:31.922Z,18.66
2022-08-31T00:20:33.735Z,18.64
2022-08-31T00:21:31.880Z,18.56
2022-08-31T00:22:31.869Z,18.64
2022-08-31T00:23:31.843Z,18.50
2022-08-31T00:24:31.902Z,18.59
2022-08-31T00:25:31.845Z,18.64
2022-08-31T00:26:31.827Z,18.56
2022-08-31T00:27:31.847Z,18.54
2022-08-31T00:28:31.787Z,18.59
2022-08-31T00:29:31.823Z,18.57
2022-08-31T00:30:31.791Z,18.56
2022-08-31T00:31:31.862Z,18.57
2022-08-31T00:32:31.754Z,18.53
2022-08-31T00:33:31.742Z,18.53
2022-08-31T00:34:31.833Z,18.60
2022-08-31T00:35:31.718Z,18.56
2022-08-31T00:36:31.734Z,18.53
2022-08-31T00:37:31.719Z,18.53
2022-08-31T00:38:31.736Z,18.53
2022-08-31T00:39:31.714Z,18.59
2022-08-31T00:40:31.750Z,18.54
2022-08-31T00:41:31.661Z,18.54
2022-08-31T00:42:31.673Z,18.51
2022-08-31T00:43:31.640Z,18.54
2022-08-31T00:44:31.665Z,18.59
2022-08-31T00:45:31.652Z,18.57
2022-08-31T00:46:31.603Z,18.53
2022-08-31T00:47:31.693Z,18.64
2022-08-31T00:48:31.579Z,18.50
2022-08-31T00:49:31.583Z,18.47
2022-08-31T00:50:31.603Z,18.59
2022-08-31T00:51:31.532Z,18.53
2022-08-31T00:52:33.139Z,18.50
2022-08-31T00:53:32.546Z,18.51
2022-08-31T00:54:31.561Z,18.50
2022-08-31T00:55:31.497Z,18.51
2022-08-31T00:56:31.486Z,18.50
2022-08-31T00:57:34.203Z,18.50
2022-08-31T00:58:31.476Z,18.54
2022-08-31T00:59:31.518Z,18.47
2022-08-31T01:00:31.462Z,18.49
2022-08-31T01:01:31.461Z,18.49
2022-08-31T01:02:31.471Z,18.51
2022-08-31T01:03:31.416Z,18.49
2022-08-31T01:04:31.422Z,18.51
2022-08-31T01:05:31.398Z,18.41
2022-08-31T01:06:31.409Z,18.41
2022-08-31T01:07:31.362Z,18.36
2022-08-31T01:08:31.349Z,18.49
2022-08-31T01:09:31.352Z,18.35
2022-08-31T01:10:31.343Z,18.39
2022-08-31T01:11:31.329Z,18.41
2022-08-31T01:12:31.307Z,18.41
2022-08-31T01:13:31.350Z,18.35
2022-08-31T01:14:31.310Z,18.39
2022-08-31T01:15:31.280Z,18.32
2022-08-31T01:16:31.324Z,18.41
2022-08-31T01:17:31.257Z,18.36
2022-08-31T01:18:31.280Z,18.42
2022-08-31T01:19:31.296Z,18.38
2022-08-31T01:20:31.217Z,18.41
2022-08-31T01:21:31.212Z,18.41
2022-08-31T01:22:31.204Z,18.38
2022-08-31T01:23:31.193Z,18.41
2022-08-31T01:24:31.209Z,18.41
2022-08-31T01:25:33.702Z,18.41
2022-08-31T01:26:31.158Z,18.41
2022-08-31T01:27:31.193Z,18.38
2022-08-31T01:28:31.138Z,18.38
2022-08-31T01:29:31.149Z,18.36
2022-08-31T01:30:31.126Z,18.36
2022-08-31T01:31:31.133Z,18.38
2022-08-31T01:32:31.097Z,18.35
2022-08-31T01:33:31.121Z,18.39
2022-08-31T01:34:31.096Z,18.46
2022-08-31T01:35:31.085Z,18.44
2022-08-31T01:36:31.065Z,18.31
2022-08-31T01:37:31.042Z,18.41
2022-08-31T01:38:31.036Z,18.36
2022-08-31T01:39:31.044Z,18.41
2022-08-31T01:40:31.078Z,18.46
2022-08-31T01:41:30.990Z,18.38
2022-08-31T01:42:34.182Z,18.35
2022-08-31T01:43:30.985Z,18.38
2022-08-31T01:44:30.977Z,18.32
2022-08-31T01:45:30.961Z,18.42
2022-08-31T01:46:31.075Z,18.46
2022-08-31T01:47:30.978Z,18.44
2022-08-31T01:48:30.936Z,18.39
2022-08-31T01:49:30.928Z,18.47
2022-08-31T01:50:30.903Z,18.38
2022-08-31T01:51:30.896Z,18.38
2022-08-31T01:52:30.901Z,18.36
2022-08-31T01:53:30.883Z,18.34
2022-08-31T01:54:31.032Z,18.34
2022-08-31T01:55:30.851Z,18.35
2022-08-31T01:56:30.846Z,18.36
2022-08-31T01:57:34.325Z,18.38
2022-08-31T01:58:30.833Z,18.39
2022-08-31T01:59:30.828Z,18.36
2022-08-31T02:00:30.862Z,18.29
2022-08-31T02:01:32.929Z,18.21
2022-08-31T02:02:30.858Z,18.34
2022-08-31T02:03:30.764Z,18.35
2022-08-31T02:04:30.767Z,18.23
2022-08-31T02:05:30.772Z,18.25
2022-08-31T02:06:30.729Z,18.26
2022-08-31T02:07:30.750Z,18.25
2022-08-31T02:08:30.706Z,18.21
2022-08-31T02:09:30.712Z,18.19
2022-08-31T02:10:30.719Z,18.21
2022-08-31T02:11:30.677Z,18.20
2022-08-31T02:12:30.669Z,18.20
2022-08-31T02:13:30.655Z,18.21
2022-08-31T02:14:30.735Z,18.23
2022-08-31T02:15:30.630Z,18.21
2022-08-31T02:16:30.752Z,18.21
2022-08-31T02:17:30.616Z,18.17
2022-08-31T02:18:30.631Z,18.14
2022-08-31T02:19:30.594Z,18.14
2022-08-31T02:20:30.596Z,18.16
2022-08-31T02:21:30.576Z,18.20
2022-08-31T02:22:30.557Z,18.17
2022-08-31T02:23:30.548Z,18.20
2022-08-31T02:24:30.568Z,18.21
2022-08-31T02:25:30.564Z,18.25
2022-08-31T02:26:30.529Z,18.21
2022-08-31T02:27:30.541Z,18.26
2022-08-31T02:28:30.528Z,18.21
2022-08-31T02:29:30.512Z,18.23
2022-08-31T02:30:30.494Z,18.28
2022-08-31T02:31:30.569Z,18.25
2022-08-31T02:32:30.450Z,18.21
2022-08-31T02:33:30.477Z,18.23
2022-08-31T02:34:30.452Z,18.20
2022-08-31T02:35:30.462Z,18.31
2022-08-31T02:36:30.411Z,18.19
2022-08-31T02:37:30.391Z,18.19
2022-08-31T02:38:30.442Z,18.25
2022-08-31T02:39:30.388Z,18.21
2022-08-31T02:40:30.465Z,18.26
2022-08-31T02:41:30.352Z,18.32
2022-08-31T02:42:33.031Z,18.34
2022-08-31T02:43:31.341Z,18.28
2022-08-31T02:44:30.354Z,18.25
2022-08-31T02:45:30.342Z,18.28
2022-08-31T02:46:30.349Z,18.17
2022-08-31T02:47:30.291Z,18.17
2022-08-31T02:48:30.355Z,18.25
2022-08-31T02:49:30.280Z,18.23
2022-08-31T02:50:30.254Z,18.21
2022-08-31T02:51:30.249Z,18.25
2022-08-31T02:52:30.239Z,18.17
2022-08-31T02:53:30.235Z,18.13
2022-08-31T02:54:30.229Z,18.20
2022-08-31T02:55:30.261Z,18.21
2022-08-31T02:56:30.225Z,18.20
2022-08-31T02:57:30.224Z,18.20
2022-08-31T02:58:30.186Z,18.25
2022-08-31T02:59:30.164Z,18.17
2022-08-31T03:00:30.175Z,18.17
2022-08-31T03:01:30.159Z,18.19
2022-08-31T03:02:32.046Z,18.19
2022-08-31T03:03:30.162Z,18.20
2022-08-31T03:04:30.116Z,18.20
2022-08-31T03:05:30.134Z,18.20
2022-08-31T03:06:30.093Z,18.21
2022-08-31T03:07:30.081Z,18.19
2022-08-31T03:08:31.062Z,18.13
2022-08-31T03:09:30.130Z,18.14
2022-08-31T03:10:30.051Z,18.16
2022-08-31T03:11:30.059Z,18.21
2022-08-31T03:12:30.052Z,18.14
2022-08-31T03:13:30.030Z,18.11
2022-08-31T03:14:29.999Z,18.10
2022-08-31T03:15:30.105Z,18.10
2022-08-31T03:16:29.997Z,18.10
2022-08-31T03:17:29.989Z,18.11
2022-08-31T03:18:30.046Z,18.14
2022-08-31T03:19:30.215Z,18.20
2022-08-31T03:20:29.945Z,18.14
2022-08-31T03:21:29.937Z,18.09
2022-08-31T03:22:29.933Z,18.16
2022-08-31T03:23:29.957Z,18.13
2022-08-31T03:24:29.910Z,18.16
2022-08-31T03:25:29.909Z,18.14
2022-08-31T03:26:29.927Z,18.10
2022-08-31T03:27:29.861Z,18.10
2022-08-31T03:28:29.881Z,18.10
2022-08-31T03:29:29.832Z,18.05
2022-08-31T03:30:31.348Z,18.07
2022-08-31T03:31:29.880Z,18.13
2022-08-31T03:32:29.804Z,18.07
2022-08-31T03:33:29.829Z,18.05
2022-08-31T03:34:29.774Z,18.10
2022-08-31T03:35:29.780Z,18.10
2022-08-31T03:36:29.790Z,18.10
2022-08-31T03:37:29.753Z,18.09
2022-08-31T03:38:29.780Z,18.04
2022-08-31T03:39:29.736Z,18.01
2022-08-31T03:40:29.843Z,18.04
2022-08-31T03:41:29.728Z,17.98
2022-08-31T03:42:29.706Z,18.10
2022-08-31T03:43:29.727Z,18.01
2022-08-31T03:44:29.667Z,18.01
2022-08-31T03:45:29.676Z,18.02
2022-08-31T03:46:29.712Z,18.05
2022-08-31T03:47:29.658Z,17.95
2022-08-31T03:48:29.707Z,18.11
2022-08-31T03:49:29.657Z,17.92
2022-08-31T03:50:29.651Z,18.09
2022-08-31T03:51:29.593Z,17.95
2022-08-31T03:52:29.591Z,18.01
2022-08-31T03:53:29.612Z,18.02
2022-08-31T03:54:29.570Z,18.02
2022-08-31T03:55:29.632Z,17.91
2022-08-31T03:56:29.549Z,17.91
2022-08-31T03:57:29.606Z,17.92
2022-08-31T03:58:29.546Z,17.92
2022-08-31T03:59:29.531Z,17.89
2022-08-31T04:00:29.514Z,17.79
2022-08-31T04:01:29.557Z,17.77
2022-08-31T04:02:32.914Z,17.79
2022-08-31T04:03:30.580Z,17.71
2022-08-31T04:04:29.457Z,17.73
2022-08-31T04:05:29.459Z,17.71
2022-08-31T04:06:29.456Z,17.66
2022-08-31T04:07:29.420Z,17.70
2022-08-31T04:08:30.444Z,17.68
2022-08-31T04:09:29.405Z,17.68
2022-08-31T04:10:29.414Z,17.63
2022-08-31T04:11:44.547Z,17.71
2022-08-31T04:12:30.398Z,17.79
2022-08-31T04:13:30.313Z,17.71
2022-08-31T04:14:29.364Z,17.71
2022-08-31T04:15:29.703Z,17.71
2022-08-31T04:16:29.331Z,17.66
2022-08-31T04:17:29.358Z,17.65
2022-08-31T04:18:29.316Z,17.66
2022-08-31T04:19:31.410Z,17.71
2022-08-31T04:20:30.002Z,17.66
2022-08-31T04:21:29.377Z,17.66
2022-08-31T04:22:29.276Z,17.63
2022-08-31T04:23:29.285Z,17.58
2022-08-31T04:24:29.262Z,17.57
2022-08-31T04:25:29.236Z,17.49
2022-08-31T04:26:29.223Z,17.54
2022-08-31T04:27:29.246Z,17.51
2022-08-31T04:28:29.207Z,17.55
2022-08-31T04:29:29.199Z,17.51
2022-08-31T04:30:29.186Z,17.47
2022-08-31T04:31:29.288Z,17.46
2022-08-31T04:32:29.759Z,17.42
2022-08-31T04:33:29.160Z,17.43
2022-08-31T04:34:29.121Z,17.39
2022-08-31T04:35:29.164Z,17.51
2022-08-31T04:36:29.119Z,17.40
2022-08-31T04:37:29.080Z,17.47
2022-08-31T04:38:29.101Z,17.45
2022-08-31T04:39:32.213Z,17.47
2022-08-31T04:40:29.095Z,17.47
2022-08-31T04:41:29.086Z,17.51
2022-08-31T04:42:29.042Z,17.55
2022-08-31T04:43:29.062Z,17.47
2022-08-31T04:44:29.032Z,17.49
2022-08-31T04:45:29.037Z,17.49
2022-08-31T04:46:29.003Z,17.70
2022-08-31T04:47:28.986Z,17.70
2022-08-31T04:48:29.063Z,17.62
2022-08-31T04:49:28.973Z,17.66
2022-08-31T04:50:28.960Z,17.63
2022-08-31T04:51:28.964Z,17.66
2022-08-31T04:52:28.925Z,17.71
2022-08-31T04:53:28.968Z,17.65
2022-08-31T04:54:28.945Z,17.70
2022-08-31T04:55:28.893Z,17.70
2022-08-31T04:56:28.921Z,17.65
2022-08-31T04:57:28.882Z,17.68
2022-08-31T04:58:28.894Z,17.62
2022-08-31T04:59:28.881Z,17.60
2022-08-31T05:00:28.866Z,17.53
2022-08-31T05:01:28.967Z,17.51
2022-08-31T05:02:29.901Z,17.49
2022-08-31T05:03:28.905Z,17.51
2022-08-31T05:04:28.826Z,17.53
2022-08-31T05:05:28.810Z,17.47
2022-08-31T05:06:28.812Z,17.49
2022-08-31T05:07:28.789Z,17.51
2022-08-31T05:08:28.772Z,17.49
2022-08-31T05:09:28.787Z,17.49
2022-08-31T05:10:28.757Z,17.51
2022-08-31T05:11:28.724Z,17.54
2022-08-31T05:12:28.732Z,17.49
2022-08-31T05:13:28.740Z,17.47
2022-08-31T05:14:28.684Z,17.53
2022-08-31T05:15:28.680Z,17.45
2022-08-31T05:16:28.740Z,17.47
2022-08-31T05:17:28.665Z,17.46
2022-08-31T05:18:28.659Z,17.45
2022-08-31T05:19:28.662Z,17.43
2022-08-31T05:20:28.621Z,17.47
2022-08-31T05:21:28.618Z,17.47
2022-08-31T05:22:28.600Z,17.51
2022-08-31T05:23:28.630Z,17.51
2022-08-31T05:24:28.580Z,17.49
2022-08-31T05:25:28.579Z,17.46
2022-08-31T05:26:28.608Z,17.49
2022-08-31T05:27:28.574Z,17.43
2022-08-31T05:28:28.581Z,17.47
2022-08-31T05:29:28.562Z,17.45
2022-08-31T05:30:28.513Z,17.45
2022-08-31T05:31:28.572Z,17.45
2022-08-31T05:32:28.524Z,17.46
2022-08-31T05:33:28.496Z,17.46
2022-08-31T05:34:28.554Z,17.40
2022-08-31T05:35:28.491Z,17.47
2022-08-31T05:36:28.486Z,17.46
2022-08-31T05:37:28.468Z,17.49
2022-08-31T05:38:28.461Z,17.43
2022-08-31T05:39:28.471Z,17.49
2022-08-31T05:40:28.505Z,17.51
2022-08-31T05:41:28.417Z,17.51
2022-08-31T05:42:28.421Z,17.53
2022-08-31T05:43:28.440Z,17.49
2022-08-31T05:44:29.679Z,17.53
2022-08-31T05:45:28.358Z,17.51
2022-08-31T05:46:28.362Z,17.55
2022-08-31T05:47:28.362Z,17.60
2022-08-31T05:48:29.966Z,17.58
2022-08-31T05:49:28.326Z,17.62
2022-08-31T05:50:28.329Z,17.62
2022-08-31T05:51:28.292Z,17.58
2022-08-31T05:52:28.328Z,17.66
2022-08-31T05:53:28.271Z,17.57
2022-08-31T05:54:28.260Z,17.57
2022-08-31T05:55:28.256Z,17.54
2022-08-31T05:56:28.264Z,17.65
2022-08-31T05:57:28.295Z,17.63
2022-08-31T05:58:28.291Z,17.62
2022-08-31T05:59:28.197Z,17.62
2022-08-31T06:00:28.205Z,17.66
2022-08-31T06:01:28.344Z,17.62
2022-08-31T06:02:29.429Z,17.65
2022-08-31T06:03:28.188Z,17.63
2022-08-31T06:04:28.163Z,17.68
2022-08-31T06:05:28.259Z,17.55
2022-08-31T06:06:28.145Z,17.70
2022-08-31T06:07:28.127Z,17.66
2022-08-31T06:08:28.161Z,17.68
2022-08-31T06:09:28.110Z,17.74
2022-08-31T06:10:28.155Z,17.73
2022-08-31T06:11:28.097Z,17.74
2022-08-31T06:12:28.075Z,17.79
2022-08-31T06:13:28.134Z,17.76
2022-08-31T06:14:28.059Z,17.74
2022-08-31T06:15:28.033Z,17.68
2022-08-31T06:16:28.144Z,17.70
2022-08-31T06:17:28.060Z,17.74
2022-08-31T06:18:28.040Z,17.73
2022-08-31T06:19:28.006Z,17.68
2022-08-31T06:20:28.076Z,17.70
2022-08-31T06:21:27.968Z,17.71
2022-08-31T06:22:27.972Z,17.71
2022-08-31T06:23:27.964Z,17.76
2022-08-31T06:24:27.956Z,17.66
2022-08-31T06:25:27.952Z,17.70
2022-08-31T06:26:27.916Z,17.74
2022-08-31T06:27:27.901Z,17.65
2022-08-31T06:28:27.957Z,17.63
2022-08-31T06:29:27.910Z,17.68
2022-08-31T06:30:27.922Z,17.65
2022-08-31T06:31:27.982Z,17.63
2022-08-31T06:32:27.867Z,17.66
2022-08-31T06:33:27.901Z,17.63
2022-08-31T06:34:27.846Z,17.66
2022-08-31T06:35:27.815Z,17.66
2022-08-31T06:36:28.208Z,17.71
2022-08-31T06:37:27.867Z,17.70
2022-08-31T06:38:27.860Z,17.71
2022-08-31T06:39:27.774Z,17.77
2022-08-31T06:40:27.907Z,17.74
2022-08-31T06:41:27.751Z,17.80
2022-08-31T06:42:27.775Z,17.76
2022-08-31T06:43:27.790Z,17.89
2022-08-31T06:44:27.717Z,17.87
2022-08-31T06:45:27.758Z,17.83
2022-08-31T06:46:27.822Z,17.84
2022-08-31T06:47:27.678Z,17.87
2022-08-31T06:48:27.689Z,17.89
2022-08-31T06:49:27.833Z,17.81
2022-08-31T06:50:27.682Z,17.92
2022-08-31T06:51:27.669Z,17.87
2022-08-31T06:52:27.644Z,17.86
2022-08-31T06:53:27.741Z,17.96
2022-08-31T06:54:30.050Z,17.87
2022-08-31T06:55:27.626Z,17.86
2022-08-31T06:56:27.653Z,17.96
2022-08-31T06:57:27.592Z,17.94
2022-08-31T06:58:27.611Z,18.07
2022-08-31T06:59:29.218Z,18.13
2022-08-31T07:00:27.604Z,18.01
2022-08-31T07:01:35.261Z,18.05
2022-08-31T07:02:28.600Z,18.07
2022-08-31T07:03:27.641Z,18.09
2022-08-31T07:04:27.559Z,18.13
2022-08-31T07:05:27.512Z,18.13
2022-08-31T07:06:27.553Z,18.02
2022-08-31T07:07:27.501Z,18.11
2022-08-31T07:08:27.481Z,18.17
2022-08-31T07:09:27.454Z,18.28
2022-08-31T07:10:27.443Z,18.21
2022-08-31T07:11:27.434Z,18.26
2022-08-31T07:12:27.434Z,18.21
2022-08-31T07:13:27.452Z,18.34
2022-08-31T07:14:27.415Z,18.39
2022-08-31T07:15:27.399Z,18.41
2022-08-31T07:16:27.459Z,18.47
2022-08-31T07:17:27.434Z,18.56
2022-08-31T07:18:27.389Z,18.57
2022-08-31T07:19:27.349Z,18.65
2022-08-31T07:20:27.351Z,18.50
2022-08-31T07:21:27.326Z,18.47
2022-08-31T07:22:27.429Z,18.53
2022-08-31T07:23:27.375Z,18.57
2022-08-31T07:24:27.301Z,18.57
2022-08-31T07:25:27.284Z,18.68
2022-08-31T07:26:27.294Z,18.79
2022-08-31T07:27:27.265Z,19.05
2022-08-31T07:28:27.293Z,19.10
2022-08-31T07:29:27.261Z,19.16
2022-08-31T07:30:29.096Z,19.25
2022-08-31T07:31:28.298Z,19.25
2022-08-31T07:32:27.322Z,19.32
2022-08-31T07:33:27.231Z,19.31
2022-08-31T07:34:27.178Z,19.39
2022-08-31T07:35:27.168Z,19.42
2022-08-31T07:36:27.155Z,19.53
2022-08-31T07:37:27.163Z,19.65
2022-08-31T07:38:27.452Z,19.76
2022-08-31T07:39:27.120Z,19.72
2022-08-31T07:40:27.242Z,19.86
2022-08-31T07:41:27.185Z,19.80
2022-08-31T07:42:27.188Z,19.75
2022-08-31T07:43:27.091Z,19.71
2022-08-31T07:44:27.081Z,19.94
2022-08-31T07:45:30.293Z,20.10
2022-08-31T07:46:28.166Z,20.20
2022-08-31T07:47:27.043Z,20.15
2022-08-31T07:48:27.071Z,20.13
2022-08-31T07:49:27.020Z,19.82
2022-08-31T07:50:27.042Z,19.76
2022-08-31T07:51:27.028Z,19.50
2022-08-31T07:52:27.003Z,19.57
2022-08-31T07:53:26.999Z,19.53
2022-08-31T07:54:26.968Z,19.61
2022-08-31T07:55:27.394Z,19.68
2022-08-31T07:56:27.000Z,19.67
2022-08-31T07:57:26.925Z,19.72
2022-08-31T07:58:26.955Z,19.78
2022-08-31T07:59:26.928Z,19.72
2022-08-31T08:00:27.297Z,19.68
2022-08-31T08:01:26.928Z,19.71
2022-08-31T08:02:26.994Z,19.75
2022-08-31T08:03:26.906Z,19.67
2022-08-31T08:04:26.883Z,19.64
2022-08-31T08:05:28.704Z,19.65
2022-08-31T08:06:26.834Z,19.75
2022-08-31T08:07:27.838Z,19.65
2022-08-31T08:08:26.841Z,19.60
2022-08-31T08:09:26.794Z,19.52
2022-08-31T08:10:26.798Z,19.40
2022-08-31T08:11:26.850Z,19.45
2022-08-31T08:12:26.773Z,19.34
2022-08-31T08:13:26.784Z,19.39
2022-08-31T08:14:26.752Z,19.62
2022-08-31T08:15:26.762Z,19.78
2022-08-31T08:16:26.822Z,19.89
2022-08-31T08:17:26.729Z,20.05
2022-08-31T08:18:26.735Z,20.15
2022-08-31T08:19:26.748Z,20.26
2022-08-31T08:20:38.025Z,20.54
2022-08-31T08:21:27.669Z,20.63
2022-08-31T08:22:50.908Z,20.69
2022-08-31T08:23:29.055Z,20.85
2022-08-31T08:24:26.643Z,21.00
2022-08-31T08:25:26.764Z,21.18
2022-08-31T08:26:26.651Z,21.09
2022-08-31T08:27:26.618Z,21.09
2022-08-31T08:28:39.115Z,21.19
2022-08-31T08:29:27.629Z,21.37
2022-08-31T08:30:26.591Z,21.36
2022-08-31T08:31:26.642Z,21.38
2022-08-31T08:32:26.545Z,21.51
2022-08-31T08:33:26.556Z,21.56
2022-08-31T08:34:31.651Z,21.48
2022-08-31T08:35:27.524Z,21.31
2022-08-31T08:36:26.568Z,21.22
2022-08-31T08:37:47.435Z,21.15
2022-08-31T08:38:27.525Z,20.96
2022-08-31T08:39:26.518Z,21.06
2022-08-31T08:40:26.621Z,21.24
2022-08-31T08:41:26.482Z,21.15
2022-08-31T08:42:26.474Z,21.26
2022-08-31T08:43:30.661Z,21.09
2022-08-31T08:44:26.455Z,21.19
2022-08-31T08:45:26.584Z,21.13
2022-08-31T08:46:34.862Z,21.22
2022-08-31T08:47:28.501Z,21.16
2022-08-31T08:48:27.443Z,21.06
2022-08-31T08:49:26.368Z,21.09
2022-08-31T08:50:26.392Z,21.06
2022-08-31T08:51:26.382Z,20.96
2022-08-31T08:52:26.346Z,20.76
2022-08-31T08:53:26.347Z,20.87
2022-08-31T08:54:26.317Z,21.06
2022-08-31T08:55:26.347Z,21.24
2022-08-31T08:56:33.338Z,21.55
2022-08-31T08:57:27.310Z,21.79
2022-08-31T08:58:26.279Z,21.52
2022-08-31T08:59:26.298Z,21.24
2022-08-31T09:00:26.258Z,21.12
2022-08-31T09:01:26.310Z,21.08
2022-08-31T09:02:26.296Z,20.96
2022-08-31T09:03:26.250Z,20.88
2022-08-31T09:04:26.212Z,20.94
2022-08-31T09:05:26.183Z,21.27
2022-08-31T09:06:26.185Z,21.48
2022-08-31T09:07:27.207Z,21.74
2022-08-31T09:08:26.190Z,22.02
2022-08-31T09:09:26.167Z,22.06
2022-08-31T09:10:26.200Z,22.14
2022-08-31T09:11:26.160Z,22.19
2022-08-31T09:12:26.134Z,21.77
2022-08-31T09:13:26.156Z,21.56
2022-08-31T09:14:26.107Z,21.68
2022-08-31T09:15:26.129Z,21.79
2022-08-31T09:16:26.291Z,22.04
2022-08-31T09:17:26.072Z,22.17
2022-08-31T09:18:26.085Z,21.93
2022-08-31T09:19:26.086Z,21.58
2022-08-31T09:20:26.112Z,21.45
2022-08-31T09:21:26.085Z,21.46
2022-08-31T09:22:26.026Z,21.64
2022-08-31T09:23:26.029Z,22.02
2022-08-31T09:24:26.015Z,22.21
2022-08-31T09:25:25.995Z,22.26
2022-08-31T09:26:25.987Z,22.14
2022-08-31T09:27:26.026Z,22.38
2022-08-31T09:28:26.019Z,22.41
2022-08-31T09:29:25.966Z,22.29
2022-08-31T09:30:25.970Z,22.35
2022-08-31T09:31:25.978Z,22.17
2022-08-31T09:32:26.467Z,21.94
2022-08-31T09:33:25.927Z,21.89
2022-08-31T09:34:25.909Z,21.82
2022-08-31T09:35:25.903Z,22.02
2022-08-31T09:36:25.879Z,22.05
2022-08-31T09:37:25.893Z,22.64
2022-08-31T09:38:25.886Z,22.78
2022-08-31T09:39:25.889Z,23.62
2022-08-31T09:40:25.955Z,24.44
2022-08-31T09:41:25.808Z,25.02
2022-08-31T09:42:25.851Z,25.45
2022-08-31T09:43:25.856Z,25.51
2022-08-31T09:44:25.800Z,25.07
2022-08-31T09:45:25.849Z,25.02
2022-08-31T09:46:25.869Z,24.80
2022-08-31T09:47:25.744Z,24.46
2022-08-31T09:48:25.843Z,24.16
2022-08-31T09:49:25.753Z,23.92
2022-08-31T09:50:25.716Z,23.81
2022-08-31T09:51:25.700Z,23.59
2022-08-31T09:52:25.704Z,23.56
2022-08-31T09:53:25.715Z,23.44
2022-08-31T09:54:25.764Z,23.63
2022-08-31T09:55:25.662Z,23.49
2022-08-31T09:56:25.672Z,23.16
2022-08-31T09:57:25.658Z,23.00
2022-08-31T09:58:25.636Z,23.11
2022-08-31T09:59:25.654Z,23.32
2022-08-31T10:00:25.607Z,23.54
2022-08-31T10:01:25.689Z,23.82
2022-08-31T10:02:25.641Z,23.86
2022-08-31T10:03:25.695Z,23.86
2022-08-31T10:04:25.595Z,24.08
2022-08-31T10:05:25.619Z,24.45
2022-08-31T10:06:25.627Z,24.49
2022-08-31T10:07:25.527Z,24.79
2022-08-31T10:08:25.556Z,24.97
2022-08-31T10:09:25.537Z,25.12
2022-08-31T10:10:30.006Z,25.24
2022-08-31T10:11:26.508Z,25.44
2022-08-31T10:12:25.569Z,26.24
2022-08-31T10:13:25.497Z,26.97
2022-08-31T10:14:25.495Z,27.09
2022-08-31T10:15:25.458Z,26.87
2022-08-31T10:16:25.557Z,26.01
2022-08-31T10:17:25.472Z,25.71
2022-08-31T10:18:25.485Z,25.66
2022-08-31T10:19:25.482Z,25.66
2022-08-31T10:20:29.761Z,25.93
2022-08-31T10:21:26.588Z,25.64
2022-08-31T10:22:25.413Z,25.76
2022-08-31T10:23:25.355Z,26.08
2022-08-31T10:24:25.374Z,26.57
2022-08-31T10:25:25.348Z,27.25
2022-08-31T10:26:25.367Z,27.23
2022-08-31T10:27:25.354Z,27.08
2022-08-31T10:28:25.367Z,27.03
2022-08-31T10:29:25.398Z,26.66
2022-08-31T10:30:25.378Z,27.09
2022-08-31T10:31:25.374Z,27.34
2022-08-31T10:32:25.277Z,27.24
2022-08-31T10:33:25.359Z,26.78
2022-08-31T10:34:25.297Z,26.36
2022-08-31T10:35:25.239Z,26.21
2022-08-31T10:36:25.260Z,25.96
2022-08-31T10:37:25.277Z,25.64
2022-08-31T10:38:25.256Z,25.98
2022-08-31T10:39:25.213Z,26.08
2022-08-31T10:40:25.346Z,25.75
2022-08-31T10:41:25.173Z,25.60
2022-08-31T10:42:25.168Z,25.56
2022-08-31T10:43:25.215Z,25.12
2022-08-31T10:44:25.191Z,25.11
2022-08-31T10:45:25.184Z,24.34
2022-08-31T10:46:25.192Z,24.33
2022-08-31T10:47:32.752Z,24.18
2022-08-31T10:48:26.165Z,23.90
2022-08-31T10:49:25.231Z,23.86
2022-08-31T10:50:25.087Z,24.06
2022-08-31T10:51:25.090Z,24.27
2022-08-31T10:52:25.091Z,24.16
2022-08-31T10:53:25.075Z,23.93
2022-08-31T10:54:25.045Z,23.57
2022-08-31T10:55:25.068Z,23.45
2022-08-31T10:56:25.013Z,23.69
2022-08-31T10:57:26.233Z,23.81
2022-08-31T10:58:26.070Z,24.26
2022-08-31T10:59:24.988Z,24.15
2022-08-31T11:00:25.005Z,24.42
2022-08-31T11:01:25.083Z,25.27
2022-08-31T11:02:24.972Z,25.57
2022-08-31T11:03:25.026Z,25.63
2022-08-31T11:04:25.009Z,26.29
2022-08-31T11:05:24.925Z,26.76
2022-08-31T11:06:24.909Z,27.20
2022-08-31T11:07:24.910Z,27.35
2022-08-31T11:08:24.913Z,27.80
2022-08-31T11:09:24.877Z,28.01
2022-08-31T11:10:24.913Z,28.03
2022-08-31T11:11:24.889Z,28.13
2022-08-31T11:12:24.843Z,28.21
2022-08-31T11:13:24.983Z,28.52
2022-08-31T11:14:24.898Z,28.62
2022-08-31T11:15:24.835Z,29.02
2022-08-31T11:16:24.879Z,28.55
2022-08-31T11:17:24.803Z,27.91
2022-08-31T11:18:24.978Z,27.27
2022-08-31T11:19:24.830Z,27.09
2022-08-31T11:20:24.789Z,26.96
2022-08-31T11:21:24.781Z,27.31
2022-08-31T11:22:24.754Z,27.30
2022-08-31T11:23:24.770Z,27.24
2022-08-31T11:24:24.765Z,26.04
2022-08-31T11:25:24.748Z,25.67
2022-08-31T11:26:24.704Z,25.59
2022-08-31T11:27:24.694Z,25.57
2022-08-31T11:28:24.774Z,24.51
2022-08-31T11:29:24.708Z,24.31
2022-08-31T11:30:24.747Z,24.75
2022-08-31T11:31:24.715Z,25.04
2022-08-31T11:32:24.657Z,25.27
2022-08-31T11:33:24.647Z,25.56
2022-08-31T11:34:24.713Z,26.01
2022-08-31T11:35:24.623Z,26.39
2022-08-31T11:36:24.597Z,25.66
2022-08-31T11:37:24.643Z,25.24
2022-08-31T11:38:24.641Z,24.86
2022-08-31T11:39:24.632Z,24.98
2022-08-31T11:40:24.620Z,25.26
2022-08-31T11:41:24.558Z,25.66
2022-08-31T11:42:24.581Z,25.83
2022-08-31T11:43:24.543Z,25.34
2022-08-31T11:44:24.546Z,25.60
2022-08-31T11:45:25.139Z,26.16
2022-08-31T11:46:26.760Z,26.42
2022-08-31T11:47:24.496Z,27.13
2022-08-31T11:48:24.473Z,27.45
2022-08-31T11:49:24.475Z,27.63
2022-08-31T11:50:24.492Z,27.52
2022-08-31T11:51:24.472Z,27.74
2022-08-31T11:52:24.454Z,28.01
2022-08-31T11:53:24.461Z,28.30
2022-08-31T11:54:24.453Z,28.40
2022-08-31T11:55:24.415Z,28.32
2022-08-31T11:56:24.408Z,27.77
2022-08-31T11:57:24.398Z,27.71
2022-08-31T11:58:24.378Z,27.08
2022-08-31T11:59:24.441Z,26.73
2022-08-31T12:00:24.392Z,26.39
2022-08-31T12:01:24.348Z,26.35
2022-08-31T12:02:24.456Z,26.19
2022-08-31T12:03:24.375Z,25.67
2022-08-31T12:04:24.351Z,25.23
2022-08-31T12:05:25.361Z,25.26
2022-08-31T12:06:24.321Z,25.05
2022-08-31T12:07:24.290Z,25.01
2022-08-31T12:08:24.308Z,25.19
2022-08-31T12:09:24.340Z,25.56
2022-08-31T12:10:27.645Z,26.13
2022-08-31T12:11:24.242Z,25.96
2022-08-31T12:12:24.235Z,25.39
2022-08-31T12:13:24.263Z,25.01
2022-08-31T12:14:24.267Z,24.64
2022-08-31T12:15:24.199Z,24.55
2022-08-31T12:16:24.320Z,24.46
2022-08-31T12:17:24.266Z,24.41
2022-08-31T12:18:24.176Z,24.39
2022-08-31T12:19:24.266Z,24.33
2022-08-31T12:20:24.185Z,24.27
2022-08-31T12:21:24.144Z,24.26
2022-08-31T12:22:24.127Z,24.12
2022-08-31T12:23:30.845Z,24.04
2022-08-31T12:24:25.163Z,24.00
2022-08-31T12:25:24.091Z,24.09
2022-08-31T12:26:24.109Z,24.04
2022-08-31T12:27:24.105Z,24.36
2022-08-31T12:28:29.189Z,24.97
2022-08-31T12:29:25.144Z,25.30
2022-08-31T12:30:24.037Z,25.57
2022-08-31T12:31:24.183Z,25.45
2022-08-31T12:32:24.043Z,25.79
2022-08-31T12:33:24.040Z,25.54
2022-08-31T12:34:24.708Z,25.14
2022-08-31T12:35:24.103Z,25.02
2022-08-31T12:36:24.125Z,25.14
2022-08-31T12:37:23.983Z,25.79
2022-08-31T12:38:24.034Z,26.01
2022-08-31T12:39:23.964Z,25.97
2022-08-31T12:40:24.085Z,25.71
2022-08-31T12:41:25.513Z,25.12
2022-08-31T12:42:23.949Z,25.71
2022-08-31T12:43:23.979Z,26.39
2022-08-31T12:44:23.972Z,26.91
2022-08-31T12:45:23.932Z,27.21
2022-08-31T12:46:23.939Z,27.53
2022-08-31T12:47:24.342Z,27.95
2022-08-31T12:48:23.907Z,28.30
2022-08-31T12:49:23.837Z,28.35
2022-08-31T12:50:23.821Z,27.91
2022-08-31T12:51:23.855Z,28.20
2022-08-31T12:52:23.810Z,28.11